Time;durP1;ratioP1;P1;durP2;ratioP2;P2;SDS_P1;SDS_P2;PMS_P1;PMS_P2;Temp;Humidity;BMP_temperature;BMP_pressure;BME280_temperature;BME280_humidity;BME280_pressure;Samples;Min_cycle;Max_cycle;Signal;HPM_P1;HPM_P2
2022/08/05 00:01:51;;;;;;;1.85;1.50;;;;;;;;;;5126689;28;20465;-48
2022/08/05 00:04:16;;;;;;;5.53;2.67;;;;;;;;;;5127039;28;20115;-44
2022/08/05 00:06:42;;;;;;;1.00;0.88;;;;;;;;;;5125642;28;20053;-44
2022/08/05 00:09:07;;;;;;;2.85;1.90;;;;;;;;;;5126366;28;20172;-47
2022/08/05 00:11:32;;;;;;;2.65;1.60;;;;;;;;;;5125628;28;20122;-49
2022/08/05 00:13:58;;;;;;;3.85;1.90;;;;;;;;;;5124811;28;20413;-46
2022/08/05 00:16:23;;;;;;;3.22;1.42;;;;;;;;;;5126095;28;20097;-45
2022/08/05 00:18:49;;;;;;;2.88;1.95;;;;;;;;;;5126174;28;20027;-45
2022/08/05 00:21:15;;;;;;;1.80;1.42;;;;;;;;;;5125536;28;20497;-44
2022/08/05 00:23:41;;;;;;;3.70;1.60;;;;;;;;;;5125542;28;20047;-44
2022/08/05 00:26:07;;;;;;;2.58;2.08;;;;;;;;;;5125705;28;20144;-45
2022/08/05 00:28:32;;;;;;;2.08;1.60;;;;;;;;;;5126336;28;20046;-45
2022/08/05 00:30:58;;;;;;;3.95;1.75;;;;;;;;;;5125472;28;20035;-45
2022/08/05 00:33:23;;;;;;;1.50;1.00;;;;;;;;;;5126988;28;20058;-46
2022/08/05 00:35:49;;;;;;;1.70;1.33;;;;;;;;;;5125492;28;20565;-46
2022/08/05 00:38:14;;;;;;;2.47;1.33;;;;;;;;;;5126183;28;20043;-44
2022/08/05 00:40:46;;;;;;;10.75;1.92;;;;;;;;;;5124160;28;20514;-44
2022/08/05 00:43:11;;;;;;;2.17;1.60;;;;;;;;;;5124017;27;20197;-43
2022/08/05 00:45:37;;;;;;;2.50;1.58;;;;;;;;;;5125278;28;20466;-47
2022/08/05 00:48:02;;;;;;;2.00;1.17;;;;;;;;;;5126062;28;20443;-48
2022/08/05 00:50:27;;;;;;;1.13;0.82;;;;;;;;;;5126248;28;20484;-43
2022/08/05 00:52:53;;;;;;;2.10;1.35;;;;;;;;;;5122610;28;20478;-44
2022/08/05 00:55:18;;;;;;;2.08;1.63;;;;;;;;;;5125588;28;20035;-45
2022/08/05 00:57:43;;;;;;;1.80;1.48;;;;;;;;;;5125164;28;20074;-45
2022/08/05 01:00:09;;;;;;;4.30;1.38;;;;;;;;;;5125932;28;20400;-47
2022/08/05 01:02:34;;;;;;;3.40;1.70;;;;;;;;;;5125031;28;20283;-48
2022/08/05 01:05:00;;;;;;;3.15;2.10;;;;;;;;;;5126429;28;20047;-45
2022/08/05 01:07:25;;;;;;;2.67;1.80;;;;;;;;;;5126427;28;20122;-43
2022/08/05 01:09:50;;;;;;;2.53;1.77;;;;;;;;;;5125454;28;20050;-44
2022/08/05 01:12:17;;;;;;;2.22;1.65;;;;;;;;;;5126634;28;20615;-45
2022/08/05 01:14:45;;;;;;;3.88;2.08;;;;;;;;;;5125062;28;20059;-45
2022/08/05 01:17:12;;;;;;;5.40;2.78;;;;;;;;;;5124161;28;20498;-45
2022/08/05 01:19:51;;;;;;;2.65;1.48;;;;;;;;;;5126363;28;20035;-45
2022/08/05 01:22:16;;;;;;;1.73;1.17;;;;;;;;;;5124292;28;20413;-45
2022/08/05 01:25:00;;;;;;;2.83;1.77;;;;;;;;;;5126426;28;20039;-46
2022/08/05 01:27:38;;;;;;;2.40;1.98;;;;;;;;;;5125856;28;20035;-43
2022/08/05 01:30:04;;;;;;;5.18;2.72;;;;;;;;;;5125338;28;20081;-49
2022/08/05 01:32:31;;;;;;;3.33;2.10;;;;;;;;;;5126169;28;20066;-46
2022/08/05 01:34:58;;;;;;;3.10;2.03;;;;;;;;;;5126069;28;20497;-45
2022/08/05 01:37:28;;;;;;;2.80;1.85;;;;;;;;;;5125219;28;20615;-47
2022/08/05 01:39:54;;;;;;;8.25;2.22;;;;;;;;;;5125146;28;20541;-43
2022/08/05 01:42:22;;;;;;;3.70;2.28;;;;;;;;;;5125740;28;20043;-46
2022/08/05 01:44:47;;;;;;;2.83;2.33;;;;;;;;;;5124825;28;20258;-44
2022/08/05 01:47:16;;;;;;;2.58;2.22;;;;;;;;;;5125810;28;20465;-43
2022/08/05 01:49:42;;;;;;;2.08;1.60;;;;;;;;;;5125738;28;20047;-44
2022/08/05 01:52:08;;;;;;;2.00;1.75;;;;;;;;;;5124918;28;20046;-45
2022/08/05 01:54:38;;;;;;;2.97;2.38;;;;;;;;;;5125776;27;20039;-47
2022/08/05 01:57:04;;;;;;;2.53;1.85;;;;;;;;;;5128742;28;20424;-47
2022/08/05 01:59:31;;;;;;;3.15;2.35;;;;;;;;;;5128330;28;20504;-45
2022/08/05 02:01:57;;;;;;;3.75;2.22;;;;;;;;;;5129304;28;20046;-44
2022/08/05 02:04:24;;;;;;;3.30;1.95;;;;;;;;;;5129136;28;20046;-46
2022/08/05 02:06:49;;;;;;;2.38;1.52;;;;;;;;;;5129162;28;20129;-45
2022/08/05 02:09:15;;;;;;;2.33;1.67;;;;;;;;;;5128387;28;20122;-45
2022/08/05 02:11:47;;;;;;;2.72;1.58;;;;;;;;;;5129369;28;20078;-46
2022/08/05 02:14:25;;;;;;;6.05;2.35;;;;;;;;;;5129145;28;20121;-45
2022/08/05 02:16:51;;;;;;;2.10;1.48;;;;;;;;;;5128307;28;20062;-45
2022/08/05 02:19:22;;;;;;;2.83;2.25;;;;;;;;;;5127459;28;20414;-44
2022/08/05 02:21:59;;;;;;;7.53;2.47;;;;;;;;;;5127515;28;20707;-44
2022/08/05 02:24:27;;;;;;;5.72;1.73;;;;;;;;;;5123055;28;20036;-46
2022/08/05 02:26:57;;;;;;;3.92;1.85;;;;;;;;;;5126479;28;20027;-45
2022/08/05 02:29:24;;;;;;;3.97;2.95;;;;;;;;;;5128039;28;20035;-44
2022/08/05 02:31:51;;;;;;;3.83;1.67;;;;;;;;;;5128248;28;20050;-47
2022/08/05 02:34:18;;;;;;;4.30;1.65;;;;;;;;;;5127267;28;20054;-44
2022/08/05 02:36:47;;;;;;;2.38;1.77;;;;;;;;;;5124565;27;20088;-43
2022/08/05 02:39:14;;;;;;;4.10;2.92;;;;;;;;;;5126738;28;20065;-45
2022/08/05 02:41:40;;;;;;;4.25;2.55;;;;;;;;;;5128442;28;20138;-44
2022/08/05 02:44:07;;;;;;;4.20;1.85;;;;;;;;;;5127586;28;20035;-46
2022/08/05 02:46:33;;;;;;;3.88;2.35;;;;;;;;;;5126120;28;20054;-45
2022/08/05 02:48:58;;;;;;;2.13;1.88;;;;;;;;;;5126820;28;20045;-45
2022/08/05 02:51:24;;;;;;;2.92;2.35;;;;;;;;;;5128732;28;20035;-45
2022/08/05 02:53:50;;;;;;;3.53;2.15;;;;;;;;;;5125951;28;20059;-43
2022/08/05 02:56:16;;;;;;;2.13;1.92;;;;;;;;;;5126959;28;20104;-47
2022/08/05 02:58:42;;;;;;;3.85;2.88;;;;;;;;;;5125947;28;20046;-47
2022/08/05 03:01:13;;;;;;;2.47;1.92;;;;;;;;;;5127402;28;20522;-46
2022/08/05 03:03:40;;;;;;;2.17;1.77;;;;;;;;;;5127866;28;20533;-48
2022/08/05 03:06:06;;;;;;;2.38;1.83;;;;;;;;;;5127565;27;20220;-48
2022/08/05 03:08:32;;;;;;;2.55;1.77;;;;;;;;;;5127788;28;20107;-45
2022/08/05 03:10:57;;;;;;;3.00;1.92;;;;;;;;;;5127824;28;20859;-44
2022/08/05 03:13:23;;;;;;;2.70;2.03;;;;;;;;;;5127157;28;20134;-46
2022/08/05 03:15:48;;;;;;;9.88;2.15;;;;;;;;;;5127167;28;20043;-44
2022/08/05 03:18:13;;;;;;;3.50;1.88;;;;;;;;;;5127327;28;20074;-44
2022/08/05 03:20:39;;;;;;;2.90;2.03;;;;;;;;;;5127438;28;20081;-45
2022/08/05 03:23:05;;;;;;;3.95;1.77;;;;;;;;;;5127412;28;20103;-45
2022/08/05 03:25:32;;;;;;;3.13;2.20;;;;;;;;;;5126075;28;20047;-44
2022/08/05 03:27:57;;;;;;;3.30;1.90;;;;;;;;;;5126682;28;20039;-45
2022/08/05 03:30:23;;;;;;;2.60;2.10;;;;;;;;;;5127517;28;20505;-46
2022/08/05 03:32:49;;;;;;;3.08;2.20;;;;;;;;;;5127495;28;20051;-44
2022/08/05 03:35:14;;;;;;;4.70;1.80;;;;;;;;;;5124622;28;20100;-44
2022/08/05 03:37:40;;;;;;;11.07;1.95;;;;;;;;;;5125914;27;20513;-44
2022/08/05 03:40:07;;;;;;;4.60;2.03;;;;;;;;;;5127519;28;20139;-43
2022/08/05 03:42:33;;;;;;;2.90;2.60;;;;;;;;;;5125600;28;20555;-46
2022/08/05 03:44:58;;;;;;;3.60;2.88;;;;;;;;;;5125433;28;20130;-45
2022/08/05 03:47:24;;;;;;;3.10;2.17;;;;;;;;;;5125677;28;20043;-43
2022/08/05 03:49:50;;;;;;;4.72;2.20;;;;;;;;;;5126912;28;20039;-44
2022/08/05 03:52:23;;;;;;;5.85;2.65;;;;;;;;;;5126994;28;20466;-44
2022/08/05 03:54:55;;;;;;;3.83;2.50;;;;;;;;;;5125346;28;20047;-44
2022/08/05 03:57:23;;;;;;;2.28;1.75;;;;;;;;;;5123300;28;20043;-45
2022/08/05 03:59:52;;;;;;;1.88;1.52;;;;;;;;;;5127108;28;20047;-44
2022/08/05 04:02:19;;;;;;;13.18;2.60;;;;;;;;;;5126510;28;20130;-44
2022/08/05 04:04:44;;;;;;;2.15;1.75;;;;;;;;;;5124843;28;20046;-43
2022/08/05 04:07:10;;;;;;;8.05;1.67;;;;;;;;;;5126644;27;20088;-46
2022/08/05 04:09:36;;;;;;;1.85;1.60;;;;;;;;;;5126659;28;20058;-49
2022/08/05 04:12:01;;;;;;;2.67;1.88;;;;;;;;;;5125575;28;20513;-45
2022/08/05 04:14:26;;;;;;;2.22;1.52;;;;;;;;;;5124597;28;20043;-49
2022/08/05 04:16:52;;;;;;;4.07;2.08;;;;;;;;;;5125434;27;20051;-44
2022/08/05 04:19:18;;;;;;;3.10;2.55;;;;;;;;;;5125960;28;20039;-44
2022/08/05 04:21:43;;;;;;;2.67;2.13;;;;;;;;;;5125489;28;20039;-48
2022/08/05 04:24:08;;;;;;;3.53;2.03;;;;;;;;;;5126408;28;20043;-46
2022/08/05 04:26:34;;;;;;;1.98;1.48;;;;;;;;;;5125141;28;20046;-43
2022/08/05 04:28:59;;;;;;;5.32;1.65;;;;;;;;;;5123170;28;20083;-45
2022/08/05 04:31:25;;;;;;;3.53;3.10;;;;;;;;;;5126066;28;20047;-44
2022/08/05 04:33:50;;;;;;;3.88;2.65;;;;;;;;;;5125960;28;20161;-45
2022/08/05 04:36:15;;;;;;;3.53;2.83;;;;;;;;;;5126666;27;20498;-45
2022/08/05 04:38:41;;;;;;;2.05;1.65;;;;;;;;;;5122813;28;20172;-46
2022/08/05 04:41:07;;;;;;;5.70;3.60;;;;;;;;;;5125713;28;20138;-44
2022/08/05 04:43:32;;;;;;;4.70;2.58;;;;;;;;;;5125981;28;20126;-44
2022/08/05 04:45:58;;;;;;;9.00;3.42;;;;;;;;;;5126562;28;20043;-45
2022/08/05 04:48:24;;;;;;;2.30;1.50;;;;;;;;;;5125741;28;20553;-44
2022/08/05 04:50:49;;;;;;;2.38;1.67;;;;;;;;;;5125877;28;20038;-44
2022/08/05 04:53:15;;;;;;;5.15;2.40;;;;;;;;;;5126430;28;20043;-44
2022/08/05 04:55:41;;;;;;;3.85;1.98;;;;;;;;;;5126165;28;20047;-45
2022/08/05 04:58:08;;;;;;;2.00;1.58;;;;;;;;;;5124755;28;20073;-45
2022/08/05 05:00:34;;;;;;;6.05;3.13;;;;;;;;;;5126200;28;20512;-46
2022/08/05 05:02:59;;;;;;;3.15;1.92;;;;;;;;;;5126242;28;20047;-45
2022/08/05 05:05:25;;;;;;;2.63;1.85;;;;;;;;;;5125796;28;20092;-45
2022/08/05 05:07:50;;;;;;;4.95;2.78;;;;;;;;;;5124466;28;20399;-44
2022/08/05 05:10:16;;;;;;;12.15;1.85;;;;;;;;;;5125946;28;20047;-45
2022/08/05 05:12:41;;;;;;;3.78;2.08;;;;;;;;;;5125962;28;20050;-45
2022/08/05 05:15:06;;;;;;;3.30;2.50;;;;;;;;;;5124615;28;20064;-45
2022/08/05 05:17:39;;;;;;;2.70;2.47;;;;;;;;;;5124018;28;20047;-46
2022/08/05 05:20:05;;;;;;;4.13;3.67;;;;;;;;;;5124631;28;20049;-47
2022/08/05 05:22:30;;;;;;;13.13;3.20;;;;;;;;;;5125519;28;20050;-45
2022/08/05 05:24:56;;;;;;;6.45;3.97;;;;;;;;;;5125285;28;20039;-44
2022/08/05 05:27:21;;;;;;;9.73;4.28;;;;;;;;;;5124503;28;20058;-46
2022/08/05 05:29:46;;;;;;;3.65;3.35;;;;;;;;;;5127751;27;20043;-44
2022/08/05 05:32:12;;;;;;;3.25;2.75;;;;;;;;;;5127342;28;20042;-44
2022/08/05 05:34:37;;;;;;;6.70;4.32;;;;;;;;;;5128704;28;20035;-43
2022/08/05 05:37:02;;;;;;;13.00;3.08;;;;;;;;;;5126222;27;20047;-45
2022/08/05 05:39:27;;;;;;;11.63;2.55;;;;;;;;;;5122354;28;20486;-46
2022/08/05 05:41:53;;;;;;;3.33;2.22;;;;;;;;;;5126291;28;20039;-44
2022/08/05 05:44:18;;;;;;;3.15;2.45;;;;;;;;;;5129323;28;20478;-48
2022/08/05 05:46:43;;;;;;;12.15;5.40;;;;;;;;;;5128428;28;20130;-45
2022/08/05 05:49:09;;;;;;;3.63;2.65;;;;;;;;;;5129016;28;20088;-43
2022/08/05 05:51:34;;;;;;;6.35;2.97;;;;;;;;;;5125945;28;20067;-46
2022/08/05 05:53:59;;;;;;;6.43;4.10;;;;;;;;;;5128221;28;20062;-46
2022/08/05 05:56:27;;;;;;;10.70;3.78;;;;;;;;;;5125826;28;20042;-46
2022/08/05 05:58:52;;;;;;;21.58;4.40;;;;;;;;;;5124511;28;20065;-44
2022/08/05 06:01:17;;;;;;;22.13;3.85;;;;;;;;;;5128233;28;20498;-46
2022/08/05 06:03:43;;;;;;;9.77;3.65;;;;;;;;;;5127499;28;20078;-44
2022/08/05 06:06:08;;;;;;;5.30;3.45;;;;;;;;;;5128659;27;20038;-44
2022/08/05 06:08:33;;;;;;;15.23;4.32;;;;;;;;;;5126512;28;20054;-46
2022/08/05 06:10:59;;;;;;;8.25;3.60;;;;;;;;;;5126284;28;20129;-45
2022/08/05 06:13:24;;;;;;;3.42;2.75;;;;;;;;;;5126716;28;20126;-45
2022/08/05 06:15:50;;;;;;;5.43;3.80;;;;;;;;;;5126548;28;20109;-46
2022/08/05 06:18:15;;;;;;;15.50;4.57;;;;;;;;;;5127130;28;20050;-45
2022/08/05 06:20:40;;;;;;;8.73;4.05;;;;;;;;;;5127665;28;20047;-46
2022/08/05 06:23:06;;;;;;;11.80;3.97;;;;;;;;;;5128219;28;20573;-45
2022/08/05 06:25:31;;;;;;;6.53;4.45;;;;;;;;;;5127886;28;20410;-48
2022/08/05 06:27:56;;;;;;;5.40;4.28;;;;;;;;;;5128182;28;20039;-48
2022/08/05 06:30:21;;;;;;;11.00;3.40;;;;;;;;;;5128005;28;20039;-50
2022/08/05 06:32:47;;;;;;;5.82;3.75;;;;;;;;;;5127188;28;20413;-49
2022/08/05 06:35:12;;;;;;;12.45;4.70;;;;;;;;;;5128405;28;20118;-48
2022/08/05 06:37:38;;;;;;;4.65;4.25;;;;;;;;;;5128127;28;20520;-52
2022/08/05 06:40:03;;;;;;;4.10;3.35;;;;;;;;;;5127506;27;20489;-51
2022/08/05 06:42:29;;;;;;;14.68;7.65;;;;;;;;;;5127176;28;20078;-50
2022/08/05 06:44:54;;;;;;;117.72;68.85;;;;;;;;;;5127100;28;20537;-49
2022/08/05 06:47:19;;;;;;;26.20;15.20;;;;;;;;;;5128864;28;20051;-50
2022/08/05 06:49:46;;;;;;;6.90;5.38;;;;;;;;;;5126332;28;20094;-47
2022/08/05 06:52:11;;;;;;;15.65;7.85;;;;;;;;;;5127981;28;20088;-52
2022/08/05 06:54:37;;;;;;;14.60;10.00;;;;;;;;;;5127171;28;20079;-51
2022/08/05 06:57:02;;;;;;;11.93;6.35;;;;;;;;;;5127659;28;20252;-49
2022/08/05 06:59:28;;;;;;;7.57;4.60;;;;;;;;;;5127016;28;20134;-53
2022/08/05 07:01:53;;;;;;;5.35;4.43;;;;;;;;;;5127551;28;20126;-52
2022/08/05 07:04:18;;;;;;;18.70;4.07;;;;;;;;;;5127248;28;20039;-54
2022/08/05 07:06:44;;;;;;;6.30;4.13;;;;;;;;;;5128414;27;20501;-52
2022/08/05 07:09:09;;;;;;;31.70;11.52;;;;;;;;;;5125625;28;20626;-52
2022/08/05 07:11:34;;;;;;;32.45;6.13;;;;;;;;;;5126461;28;20319;-51
2022/08/05 07:16:50;;;;;;;5.78;3.28;;;;;;;;;;5128100;28;20050;-53
2022/08/05 07:19:20;;;;;;;4.45;3.28;;;;;;;;;;5126353;28;20054;-52
2022/08/05 07:21:45;;;;;;;7.07;3.42;;;;;;;;;;5126809;28;20047;-49
2022/08/05 07:24:11;;;;;;;2.92;2.28;;;;;;;;;;5127155;28;20121;-53
2022/08/05 07:26:36;;;;;;;2.55;1.67;;;;;;;;;;5127131;28;20595;-52
2022/08/05 07:29:02;;;;;;;4.15;2.22;;;;;;;;;;5127141;28;20065;-50
2022/08/05 07:31:27;;;;;;;11.35;1.70;;;;;;;;;;5126379;28;20050;-49
2022/08/05 07:33:52;;;;;;;3.25;1.70;;;;;;;;;;5123720;28;20039;-52
2022/08/05 07:36:18;;;;;;;1.90;1.42;;;;;;;;;;5126358;27;20061;-50
2022/08/05 07:38:43;;;;;;;6.53;3.30;;;;;;;;;;5127499;28;20695;-50
2022/08/05 07:41:10;;;;;;;4.78;2.28;;;;;;;;;;5125467;28;20091;-53
2022/08/05 07:43:35;;;;;;;2.83;2.17;;;;;;;;;;5123283;28;20074;-48
2022/08/05 07:46:00;;;;;;;2.17;1.83;;;;;;;;;;5125710;28;20063;-51
2022/08/05 07:48:25;;;;;;;2.60;1.17;;;;;;;;;;5124380;28;20126;-54
2022/08/05 07:50:51;;;;;;;4.72;2.13;;;;;;;;;;5124295;27;20467;-48
2022/08/05 07:53:16;;;;;;;3.47;2.15;;;;;;;;;;5126756;28;20072;-53
2022/08/05 07:55:41;;;;;;;5.80;3.20;;;;;;;;;;5126609;28;20050;-53
2022/08/05 07:58:07;;;;;;;1.80;1.38;;;;;;;;;;5126469;28;20059;-54
2022/08/05 08:00:32;;;;;;;17.48;2.00;;;;;;;;;;5125291;28;20043;-49
2022/08/05 08:02:57;;;;;;;3.45;1.95;;;;;;;;;;5125711;28;20061;-49
2022/08/05 08:05:23;;;;;;;3.08;2.33;;;;;;;;;;5125981;28;20046;-51
2022/08/05 08:07:48;;;;;;;5.07;2.08;;;;;;;;;;5125684;28;20035;-53
2022/08/05 08:10:14;;;;;;;5.63;2.20;;;;;;;;;;5125272;28;20038;-49
2022/08/05 08:12:39;;;;;;;12.90;2.05;;;;;;;;;;5125108;28;20059;-51
2022/08/05 08:15:05;;;;;;;2.45;1.88;;;;;;;;;;5124778;28;20062;-51
2022/08/05 08:17:31;;;;;;;4.18;2.20;;;;;;;;;;5126444;28;20130;-51
2022/08/05 08:19:56;;;;;;;1.67;1.58;;;;;;;;;;5126655;28;20111;-52
2022/08/05 08:22:26;;;;;;;2.65;1.80;;;;;;;;;;5123980;28;20534;-50
2022/08/05 08:24:51;;;;;;;3.15;1.52;;;;;;;;;;5125419;28;20035;-52
2022/08/05 08:27:16;;;;;;;6.70;2.50;;;;;;;;;;5125550;28;20047;-58
2022/08/05 08:29:42;;;;;;;2.30;1.75;;;;;;;;;;5123471;28;20035;-60
2022/08/05 08:32:08;;;;;;;1.52;1.00;;;;;;;;;;5125062;28;20134;-58
2022/08/05 08:34:33;;;;;;;1.15;0.50;;;;;;;;;;5124025;28;20572;-58
2022/08/05 08:36:58;;;;;;;8.40;1.23;;;;;;;;;;5122699;27;20043;-58
2022/08/05 08:39:24;;;;;;;7.18;2.22;;;;;;;;;;5124639;28;20043;-57
2022/08/05 08:41:50;;;;;;;5.38;1.75;;;;;;;;;;5123961;28;20035;-59
2022/08/05 08:44:17;;;;;;;2.25;1.52;;;;;;;;;;5126348;28;20035;-59
2022/08/05 08:46:43;;;;;;;1.67;1.20;;;;;;;;;;5124779;28;20489;-65
2022/08/05 08:49:12;;;;;;;1.50;1.20;;;;;;;;;;5125930;28;20116;-64
2022/08/05 08:51:39;;;;;;;2.58;1.42;;;;;;;;;;5123922;28;20043;-63
2022/08/05 08:54:04;;;;;;;3.33;1.17;;;;;;;;;;5125547;28;20800;-63
2022/08/05 08:56:31;;;;;;;1.05;0.77;;;;;;;;;;5126684;28;20066;-61
2022/08/05 08:58:58;;;;;;;3.97;2.40;;;;;;;;;;5124127;28;20554;-61
2022/08/05 09:01:23;;;;;;;4.43;3.47;;;;;;;;;;5123579;28;20443;-62
2022/08/05 09:03:50;;;;;;;1.58;1.00;;;;;;;;;;5123980;27;20037;-64
2022/08/05 09:06:15;;;;;;;3.65;1.45;;;;;;;;;;5126629;27;20451;-62
2022/08/05 09:08:41;;;;;;;3.30;1.50;;;;;;;;;;5128870;28;20733;-62
2022/08/05 09:11:07;;;;;;;3.38;1.83;;;;;;;;;;5129166;28;20043;-62
2022/08/05 09:13:33;;;;;;;1.70;0.98;;;;;;;;;;5128678;28;20039;-63
2022/08/05 09:15:58;;;;;;;1.95;1.30;;;;;;;;;;5127358;28;20087;-63
2022/08/05 09:18:24;;;;;;;4.03;2.17;;;;;;;;;;5128438;28;20047;-60
2022/08/05 09:20:50;;;;;;;2.92;1.55;;;;;;;;;;5127080;28;20410;-61
2022/08/05 09:23:16;;;;;;;2.80;1.33;;;;;;;;;;5127719;28;20134;-61
2022/08/05 09:25:42;;;;;;;0.90;0.52;;;;;;;;;;5127217;28;20139;-60
2022/08/05 09:28:12;;;;;;;2.97;1.10;;;;;;;;;;5128647;28;20071;-62
2022/08/05 09:30:41;;;;;;;1.40;1.13;;;;;;;;;;5128777;28;20051;-60
2022/08/05 09:33:06;;;;;;;8.20;2.00;;;;;;;;;;5128539;28;20077;-60
2022/08/05 09:35:31;;;;;;;1.50;0.90;;;;;;;;;;5128952;27;20962;-53
2022/08/05 09:37:57;;;;;;;3.80;1.77;;;;;;;;;;5127933;28;20047;-61
2022/08/05 09:40:42;;;;;;;14.32;1.60;;;;;;;;;;5128532;28;20092;-66
2022/08/05 09:43:24;;;;;;;5.63;1.42;;;;;;;;;;5121790;28;20075;-65
2022/08/05 09:45:49;;;;;;;1.55;0.88;;;;;;;;;;5128493;28;20131;-64
2022/08/05 09:48:18;;;;;;;4.80;1.02;;;;;;;;;;5126954;28;20067;-67
2022/08/05 09:50:47;;;;;;;2.38;1.42;;;;;;;;;;5128378;28;20062;-63
2022/08/05 09:53:13;;;;;;;2.00;1.52;;;;;;;;;;5127746;28;20078;-64
2022/08/05 09:55:38;;;;;;;1.08;0.55;;;;;;;;;;5127540;28;20140;-63
2022/08/05 09:58:14;;;;;;;1.77;1.08;;;;;;;;;;5125006;28;20116;-63
2022/08/05 10:00:50;;;;;;;3.70;1.55;;;;;;;;;;5128574;28;20224;-64
2022/08/05 10:03:15;;;;;;;6.30;1.40;;;;;;;;;;5127927;28;20039;-64
2022/08/05 10:05:41;;;;;;;4.53;2.60;;;;;;;;;;5125367;27;20030;-65
2022/08/05 10:08:06;;;;;;;2.05;1.17;;;;;;;;;;5125614;28;20046;-65
2022/08/05 10:10:36;;;;;;;9.23;1.02;;;;;;;;;;5128586;28;20050;-65
2022/08/05 10:13:02;;;;;;;1.02;0.70;;;;;;;;;;5127192;28;20082;-65
2022/08/05 10:15:28;;;;;;;1.67;1.25;;;;;;;;;;5125359;27;20060;-65
2022/08/05 10:18:24;;;;;;;1.67;0.95;;;;;;;;;;5124848;28;20053;-65
2022/08/05 10:20:54;;;;;;;1.20;0.77;;;;;;;;;;5123927;28;20043;-64
2022/08/05 10:23:27;;;;;;;10.13;9.07;;;;;;;;;;5127423;28;20118;-64
2022/08/05 10:26:00;;;;;;;3.80;1.67;;;;;;;;;;5127108;28;20493;-65
2022/08/05 10:28:26;;;;;;;1.73;1.02;;;;;;;;;;5127533;28;20039;-65
2022/08/05 10:30:52;;;;;;;2.47;1.38;;;;;;;;;;5127620;28;20134;-65
2022/08/05 10:33:18;;;;;;;2.08;1.25;;;;;;;;;;5126279;28;20043;-65
2022/08/05 10:35:43;;;;;;;5.40;1.50;;;;;;;;;;5125795;27;20497;-64
2022/08/05 10:38:09;;;;;;;0.85;0.60;;;;;;;;;;5127889;28;20315;-66
2022/08/05 10:40:42;;;;;;;3.65;1.23;;;;;;;;;;5125123;28;20538;-65
2022/08/05 10:43:26;;;;;;;3.70;2.33;;;;;;;;;;5125745;28;20050;-64
2022/08/05 10:45:55;;;;;;;2.45;1.02;;;;;;;;;;5125098;28;20558;-63
2022/08/05 10:48:27;;;;;;;6.05;1.20;;;;;;;;;;5127197;28;20047;-63
2022/08/05 10:51:04;;;;;;;2.22;1.23;;;;;;;;;;5126889;28;20047;-63
2022/08/05 10:53:40;;;;;;;1.70;1.00;;;;;;;;;;5124200;28;20071;-63
2022/08/05 10:56:07;;;;;;;4.10;1.00;;;;;;;;;;5125526;28;20063;-63
2022/08/05 10:58:33;;;;;;;0.80;0.63;;;;;;;;;;5124807;28;20074;-63
2022/08/05 11:00:58;;;;;;;1.75;1.42;;;;;;;;;;5127862;28;20078;-62
2022/08/05 11:03:24;;;;;;;1.25;0.75;;;;;;;;;;5127036;28;20154;-63
2022/08/05 11:06:02;;;;;;;0.95;0.70;;;;;;;;;;5128214;27;20035;-63
2022/08/05 11:08:27;;;;;;;3.05;1.88;;;;;;;;;;5127472;28;20066;-62
2022/08/05 11:10:53;;;;;;;15.57;1.30;;;;;;;;;;5126855;28;20138;-62
2022/08/05 11:13:39;;;;;;;0.82;0.55;;;;;;;;;;5127105;28;20055;-62
2022/08/05 11:16:20;;;;;;;1.52;0.95;;;;;;;;;;5125834;28;20076;-62
2022/08/05 11:18:46;;;;;;;4.53;0.88;;;;;;;;;;5126101;28;20046;-62
2022/08/05 11:21:30;;;;;;;1.80;0.95;;;;;;;;;;5125193;28;20053;-62
2022/08/05 11:23:55;;;;;;;1.60;0.82;;;;;;;;;;5125441;28;20055;-61
2022/08/05 11:26:22;;;;;;;1.83;1.30;;;;;;;;;;5123964;27;20107;-61
2022/08/05 11:28:51;;;;;;;1.73;1.17;;;;;;;;;;5124617;28;20035;-60
2022/08/05 11:31:17;;;;;;;1.20;0.65;;;;;;;;;;5124382;28;20047;-62
2022/08/05 11:33:45;;;;;;;2.03;1.25;;;;;;;;;;5125165;28;20050;-61
2022/08/05 11:36:11;;;;;;;1.35;0.95;;;;;;;;;;5122612;27;20549;-62
2022/08/05 11:38:42;;;;;;;1.98;1.65;;;;;;;;;;5125291;28;20049;-60
2022/08/05 11:41:15;;;;;;;1.83;0.90;;;;;;;;;;5124305;28;20051;-62
2022/08/05 11:43:51;;;;;;;3.53;1.30;;;;;;;;;;5126114;28;20046;-62
2022/08/05 11:46:16;;;;;;;8.88;1.58;;;;;;;;;;5123497;28;20487;-61
2022/08/05 11:48:42;;;;;;;3.15;1.23;;;;;;;;;;5125418;28;20039;-62
2022/08/05 11:51:07;;;;;;;1.05;0.68;;;;;;;;;;5125471;28;20049;-62
2022/08/05 11:53:34;;;;;;;2.28;1.30;;;;;;;;;;5123170;28;20138;-62
2022/08/05 11:56:00;;;;;;;5.40;0.68;;;;;;;;;;5124605;28;20126;-61
2022/08/05 11:58:31;;;;;;;1.42;0.88;;;;;;;;;;5124507;28;20039;-63
2022/08/05 12:01:16;;;;;;;1.73;1.10;;;;;;;;;;5124479;28;20046;-62
2022/08/05 12:03:50;;;;;;;4.93;1.33;;;;;;;;;;5125858;28;20160;-62
2022/08/05 12:06:16;;;;;;;3.72;1.73;;;;;;;;;;5122944;27;20074;-62
2022/08/05 12:08:45;;;;;;;7.18;2.00;;;;;;;;;;5126009;28;20251;-62
2022/08/05 12:11:16;;;;;;;2.28;1.42;;;;;;;;;;5124864;28;20047;-62
2022/08/05 12:13:51;;;;;;;1.75;0.70;;;;;;;;;;5123877;28;20074;-63
2022/08/05 12:16:18;;;;;;;3.05;0.98;;;;;;;;;;5126097;28;20050;-62
2022/08/05 12:18:44;;;;;;;2.08;1.55;;;;;;;;;;5125209;28;20087;-63
2022/08/05 12:21:11;;;;;;;2.30;1.60;;;;;;;;;;5107421;28;20123;-61
2022/08/05 12:23:36;;;;;;;4.40;2.35;;;;;;;;;;5125513;28;20074;-62
2022/08/05 12:26:02;;;;;;;1.92;1.08;;;;;;;;;;5125765;28;20066;-62
2022/08/05 12:28:34;;;;;;;19.98;18.13;;;;;;;;;;5123873;28;20114;-61
2022/08/05 12:30:59;;;;;;;3.38;2.70;;;;;;;;;;5126159;28;20055;-61
2022/08/05 12:33:25;;;;;;;12.75;11.75;;;;;;;;;;5125258;28;20050;-61
2022/08/05 12:35:50;;;;;;;5.50;3.97;;;;;;;;;;5124208;27;20593;-61
2022/08/05 12:38:16;;;;;;;9.18;2.72;;;;;;;;;;5124094;27;20390;-61
2022/08/05 12:40:41;;;;;;;5.40;1.45;;;;;;;;;;5125779;28;20126;-62
2022/08/05 12:43:07;;;;;;;2.08;1.17;;;;;;;;;;5124475;28;20544;-61
2022/08/05 12:45:32;;;;;;;8.43;1.60;;;;;;;;;;5125565;28;20039;-60
2022/08/05 12:47:57;;;;;;;4.63;1.92;;;;;;;;;;5124655;28;20499;-61
2022/08/05 12:50:23;;;;;;;15.25;1.80;;;;;;;;;;5125272;28;20565;-61
2022/08/05 12:52:55;;;;;;;1.90;1.10;;;;;;;;;;5121098;27;20444;-61
2022/08/05 12:55:22;;;;;;;3.25;1.13;;;;;;;;;;5125718;28;20043;-62
2022/08/05 12:57:47;;;;;;;1.95;1.15;;;;;;;;;;5120407;28;20903;-62
2022/08/05 13:00:20;;;;;;;3.13;1.42;;;;;;;;;;5123666;28;20059;-62
2022/08/05 13:02:45;;;;;;;1.90;0.90;;;;;;;;;;5124754;28;20058;-60
2022/08/05 13:05:10;;;;;;;3.10;1.77;;;;;;;;;;5123558;28;20059;-61
2022/08/05 13:07:37;;;;;;;3.22;1.13;;;;;;;;;;5125454;27;20039;-60
2022/08/05 13:10:08;;;;;;;1.25;1.00;;;;;;;;;;5124757;28;20043;-60
2022/08/05 13:12:38;;;;;;;5.38;1.35;;;;;;;;;;5125743;27;20118;-59
2022/08/05 13:15:03;;;;;;;2.78;1.08;;;;;;;;;;5126895;27;20039;-61
2022/08/05 13:17:29;;;;;;;1.65;1.27;;;;;;;;;;5124689;28;20563;-61
2022/08/05 13:19:58;;;;;;;1.65;1.05;;;;;;;;;;5125213;28;20046;-61
2022/08/05 13:22:24;;;;;;;3.33;1.48;;;;;;;;;;5124872;28;20047;-62
2022/08/05 13:24:49;;;;;;;1.45;1.00;;;;;;;;;;5123297;28;20551;-63
2022/08/05 13:27:47;;;;;;;9.13;1.90;;;;;;;;;;5124175;28;20047;-63
2022/08/05 13:30:14;;;;;;;10.93;2.00;;;;;;;;;;5067271;28;20054;-62
2022/08/05 13:32:39;;;;;;;1.70;1.30;;;;;;;;;;5124789;28;20206;-62
2022/08/05 13:35:05;;;;;;;2.63;1.42;;;;;;;;;;5123968;28;20527;-63
2022/08/05 13:37:31;;;;;;;1.27;0.80;;;;;;;;;;5124050;27;20043;-63
2022/08/05 13:39:57;;;;;;;1.75;1.52;;;;;;;;;;5124130;28;20108;-64
2022/08/05 13:42:22;;;;;;;6.53;1.23;;;;;;;;;;5121723;27;20051;-63
2022/08/05 13:44:51;;;;;;;0.60;0.45;;;;;;;;;;5122921;28;20779;-63
2022/08/05 13:47:17;;;;;;;5.85;1.00;;;;;;;;;;5121087;28;20092;-63
2022/08/05 13:49:42;;;;;;;3.88;1.60;;;;;;;;;;5121869;27;20491;-64
2022/08/05 13:52:28;;;;;;;8.63;1.90;;;;;;;;;;5122851;28;20130;-64
2022/08/05 13:54:54;;;;;;;1.67;1.10;;;;;;;;;;5124756;28;20179;-64
2022/08/05 13:57:19;;;;;;;2.13;1.15;;;;;;;;;;5125894;28;20507;-64
2022/08/05 13:59:45;;;;;;;2.08;1.30;;;;;;;;;;5123162;28;20044;-64
2022/08/05 14:02:11;;;;;;;6.93;0.88;;;;;;;;;;5119508;28;20035;-63
2022/08/05 14:07:27;;;;;;;4.55;1.77;;;;;;;;;;5125055;28;20042;-63
2022/08/05 14:09:52;;;;;;;2.13;1.40;;;;;;;;;;5123055;28;20047;-63
2022/08/05 14:12:18;;;;;;;2.85;1.83;;;;;;;;;;5124477;28;20124;-63
2022/08/05 14:14:43;;;;;;;2.42;1.75;;;;;;;;;;5125302;28;20051;-63
2022/08/05 14:17:08;;;;;;;2.78;0.90;;;;;;;;;;5125770;27;20047;-64
2022/08/05 14:19:34;;;;;;;2.15;1.30;;;;;;;;;;5125291;28;20051;-63
2022/08/05 14:21:59;;;;;;;3.25;1.60;;;;;;;;;;5124860;28;20035;-63
2022/08/05 14:24:25;;;;;;;2.78;1.63;;;;;;;;;;5125674;28;20035;-63
2022/08/05 14:26:50;;;;;;;1.90;1.17;;;;;;;;;;5125344;28;20411;-63
2022/08/05 14:29:15;;;;;;;1.85;1.20;;;;;;;;;;5124005;28;20374;-62
2022/08/05 14:31:41;;;;;;;3.72;1.98;;;;;;;;;;5122547;28;20101;-61
2022/08/05 14:34:06;;;;;;;3.45;0.95;;;;;;;;;;5125416;28;20368;-61
2022/08/05 14:36:31;;;;;;;2.65;1.52;;;;;;;;;;5123906;27;20039;-62
2022/08/05 14:38:56;;;;;;;13.57;1.52;;;;;;;;;;5125557;28;20078;-62
2022/08/05 14:41:22;;;;;;;3.28;1.55;;;;;;;;;;5122405;28;20492;-62
2022/08/05 14:43:50;;;;;;;1.33;1.00;;;;;;;;;;5124705;28;20035;-61
2022/08/05 14:46:15;;;;;;;1.48;1.35;;;;;;;;;;5124489;27;20074;-63